createdAt,value
2019-03-04T00:00:52.295Z,41.57
2019-03-04T00:03:21.651Z,37.70
2019-03-04T00:05:52.945Z,35.47
2019-03-04T00:08:22.337Z,42.17
2019-03-04T00:10:51.746Z,42.27
2019-03-04T00:13:21.201Z,37.37
2019-03-04T00:15:50.548Z,40.93
2019-03-04T00:18:19.932Z,40.57
2019-03-04T00:20:49.298Z,40.30
2019-03-04T00:23:18.637Z,41.20
2019-03-04T00:25:47.993Z,41.03
2019-03-04T00:28:17.366Z,36.80
2019-03-04T00:30:46.702Z,43.07
2019-03-04T00:33:16.126Z,37.80
2019-03-04T00:35:45.446Z,36.53
2019-03-04T00:38:14.774Z,32.97
2019-03-04T00:40:44.170Z,29.37
2019-03-04T00:43:13.523Z,31.13
2019-03-04T00:45:42.881Z,33.10
2019-03-04T00:48:12.516Z,30.07
2019-03-04T00:50:42.084Z,31.50
2019-03-04T00:53:11.448Z,30.60
2019-03-04T00:55:41.198Z,31.93
2019-03-04T00:58:10.558Z,31.47
2019-03-04T01:00:39.901Z,31.30
2019-03-04T01:03:09.249Z,28.50
2019-03-04T01:05:38.618Z,33.00
2019-03-04T01:08:08.061Z,28.53
2019-03-04T01:10:37.421Z,28.90
2019-03-04T01:13:06.801Z,29.83
2019-03-04T01:15:36.175Z,29.63
2019-03-04T01:18:05.650Z,29.70
2019-03-04T01:20:35.049Z,28.83
2019-03-04T01:23:04.505Z,30.93
2019-03-04T01:25:33.854Z,27.40
2019-03-04T01:28:03.216Z,26.33
2019-03-04T01:30:32.587Z,30.30
2019-03-04T01:33:01.959Z,28.93
2019-03-04T01:35:31.285Z,25.93
2019-03-04T01:38:00.638Z,30.57
2019-03-04T01:40:30.009Z,27.90
2019-03-04T01:42:59.424Z,29.47
2019-03-04T01:45:28.805Z,25.93
2019-03-04T01:47:58.150Z,30.10
2019-03-04T01:50:27.481Z,31.47
2019-03-04T01:52:56.812Z,29.03
2019-03-04T01:55:26.189Z,28.60
2019-03-04T01:57:55.568Z,28.73
2019-03-04T02:00:24.973Z,31.70
2019-03-04T02:02:54.347Z,26.77
2019-03-04T02:05:23.693Z,28.67
2019-03-04T02:07:53.077Z,25.73
2019-03-04T02:10:22.574Z,29.17
2019-03-04T02:12:51.908Z,28.73
2019-03-04T02:15:21.428Z,29.40
2019-03-04T02:17:50.771Z,28.47
2019-03-04T02:20:20.124Z,28.73
2019-03-04T02:22:49.472Z,30.93
2019-03-04T02:25:19.639Z,27.43
2019-03-04T02:27:54.097Z,25.60
2019-03-04T02:30:25.821Z,26.60
2019-03-04T02:32:55.219Z,26.70
2019-03-04T02:35:24.557Z,29.33
2019-03-04T02:37:53.931Z,28.33
2019-03-04T02:40:23.289Z,20.93
2019-03-04T02:42:52.643Z,23.80
2019-03-04T02:45:22.015Z,29.20
2019-03-04T02:47:51.380Z,26.13
2019-03-04T02:50:21.331Z,21.57
2019-03-04T02:53:29.511Z,22.50
2019-03-04T02:55:58.993Z,24.33
2019-03-04T02:58:28.533Z,25.40
2019-03-04T03:00:58.088Z,27.30
2019-03-04T03:03:27.540Z,23.87
2019-03-04T03:05:57.048Z,26.13
2019-03-04T03:08:26.698Z,24.17
2019-03-04T03:10:56.604Z,25.47
2019-03-04T03:13:28.278Z,22.50
2019-03-04T03:15:58.121Z,24.67
2019-03-04T03:18:27.588Z,22.93
2019-03-04T03:21:00.855Z,25.10
2019-03-04T03:23:30.198Z,26.20
2019-03-04T03:25:59.524Z,27.80
2019-03-04T03:28:28.889Z,23.93
2019-03-04T03:30:58.279Z,27.90
2019-03-04T03:33:27.685Z,26.10
2019-03-04T03:35:57.039Z,26.40
2019-03-04T03:38:26.388Z,28.67
2019-03-04T03:40:55.734Z,33.07
2019-03-04T03:43:25.075Z,25.80
2019-03-04T03:45:54.456Z,28.37
2019-03-04T03:48:23.809Z,25.93
2019-03-04T03:50:53.163Z,28.50
2019-03-04T03:53:22.521Z,28.23
2019-03-04T03:55:51.874Z,25.73
2019-03-04T03:58:21.249Z,30.30
2019-03-04T04:00:50.593Z,27.27
2019-03-04T04:03:19.940Z,29.37
2019-03-04T04:05:49.285Z,28.93
2019-03-04T04:08:18.646Z,27.60
2019-03-04T04:10:48.005Z,30.37
2019-03-04T04:13:17.386Z,33.63
2019-03-04T04:15:46.748Z,30.27
2019-03-04T04:18:16.100Z,29.63
2019-03-04T04:20:45.427Z,28.10
2019-03-04T04:23:14.814Z,27.53
2019-03-04T04:25:44.166Z,30.27
2019-03-04T04:28:13.488Z,33.83
2019-03-04T04:30:42.856Z,32.40
2019-03-04T04:33:12.212Z,29.53
2019-03-04T04:35:41.624Z,29.57
2019-03-04T04:38:11.019Z,31.40
2019-03-04T04:40:40.397Z,27.27
2019-03-04T04:43:09.739Z,34.50
2019-03-04T04:45:39.128Z,32.80
2019-03-04T04:48:08.593Z,37.10
2019-03-04T04:50:37.942Z,36.47
2019-03-04T04:53:07.319Z,32.70
2019-03-04T04:55:36.669Z,34.13
2019-03-04T04:58:06.014Z,33.37
2019-03-04T05:00:35.363Z,36.43
2019-03-04T05:03:04.704Z,34.30
2019-03-04T05:05:34.055Z,37.23
2019-03-04T05:08:03.409Z,44.73
2019-03-04T05:10:32.773Z,77.80
2019-03-04T05:13:02.149Z,80.50
2019-03-04T05:15:31.516Z,77.47
2019-03-04T05:18:00.846Z,71.90
2019-03-04T05:20:30.204Z,74.43
2019-03-04T05:22:59.577Z,68.97
2019-03-04T05:25:28.961Z,72.77
2019-03-04T05:27:58.386Z,69.47
2019-03-04T05:30:27.792Z,66.07
2019-03-04T05:32:57.141Z,71.47
2019-03-04T05:35:26.530Z,70.10
2019-03-04T05:37:55.962Z,74.27
2019-03-04T05:40:25.316Z,72.37
2019-03-04T05:42:54.734Z,76.27
2019-03-04T05:45:24.068Z,77.00
2019-03-04T05:47:53.473Z,67.67
2019-03-04T05:50:22.866Z,67.40
2019-03-04T05:52:53.636Z,55.73
2019-03-04T05:55:23.141Z,56.03
2019-03-04T05:57:52.511Z,53.33
2019-03-04T06:00:22.955Z,47.70
2019-03-04T06:02:52.334Z,46.83
2019-03-04T06:05:21.709Z,36.20
2019-03-04T06:07:57.176Z,36.90
2019-03-04T06:10:26.658Z,36.97
2019-03-04T06:12:56.005Z,34.20
2019-03-04T06:15:25.373Z,37.10
2019-03-04T06:17:54.787Z,32.83
2019-03-04T06:20:24.211Z,32.90
2019-03-04T06:22:53.540Z,35.37
2019-03-04T06:25:25.171Z,33.20
2019-03-04T06:27:54.549Z,33.23
2019-03-04T06:30:24.983Z,36.93
2019-03-04T06:32:54.402Z,36.13
2019-03-04T06:35:23.809Z,37.20
2019-03-04T06:37:53.151Z,33.87
2019-03-04T06:40:22.619Z,35.50
2019-03-04T06:42:51.988Z,45.20
2019-03-04T06:45:21.372Z,40.40
2019-03-04T06:47:50.843Z,45.07
2019-03-04T06:50:47.838Z,44.53
2019-03-04T06:53:47.504Z,41.40
2019-03-04T06:56:33.463Z,40.83
2019-03-04T06:59:07.375Z,37.30
2019-03-04T07:01:43.858Z,38.47
2019-03-04T07:04:37.772Z,41.60
2019-03-04T07:07:07.166Z,40.70
2019-03-04T07:09:36.539Z,40.27
2019-03-04T07:12:05.899Z,40.60
2019-03-04T07:14:35.258Z,46.77
2019-03-04T07:17:04.595Z,42.60
2019-03-04T07:19:36.040Z,43.00
2019-03-04T07:22:05.835Z,46.13
2019-03-04T07:24:35.209Z,37.57
2019-03-04T07:27:04.740Z,36.70
2019-03-04T07:29:34.134Z,40.50
2019-03-04T07:32:03.496Z,39.23
2019-03-04T07:34:33.864Z,31.83
2019-03-04T07:37:03.479Z,30.70
2019-03-04T07:39:32.838Z,31.53
2019-03-04T07:42:02.169Z,31.83
2019-03-04T07:44:31.818Z,39.03
2019-03-04T07:47:01.182Z,33.17
2019-03-04T07:49:30.565Z,29.87
2019-03-04T07:51:59.894Z,31.63
2019-03-04T07:54:29.267Z,32.57
2019-03-04T07:56:58.717Z,31.43
2019-03-04T07:59:28.086Z,29.73
2019-03-04T08:01:57.487Z,28.70
2019-03-04T08:04:26.899Z,30.43
2019-03-04T08:07:32.048Z,32.13
2019-03-04T08:11:01.846Z,29.33
2019-03-04T08:13:38.419Z,29.70
2019-03-04T08:16:08.464Z,35.77
2019-03-04T08:18:37.810Z,26.30
2019-03-04T08:21:07.270Z,26.37
2019-03-04T08:23:36.863Z,24.70
2019-03-04T08:26:16.958Z,26.20
2019-03-04T08:28:47.125Z,25.20
2019-03-04T08:31:38.671Z,24.90
2019-03-04T08:34:09.352Z,29.37
2019-03-04T08:36:48.687Z,25.30
2019-03-04T08:39:18.214Z,32.43
2019-03-04T08:41:47.746Z,34.70
2019-03-04T08:44:17.339Z,32.17
2019-03-04T08:46:47.084Z,32.40
2019-03-04T08:52:19.940Z,31.17
2019-03-04T08:54:49.510Z,32.73
2019-03-04T08:57:25.288Z,32.57
2019-03-04T08:59:54.694Z,31.43
2019-03-04T09:02:24.302Z,31.03
2019-03-04T09:05:18.198Z,31.90
2019-03-04T09:07:46.746Z,30.33
2019-03-04T09:10:21.757Z,30.67
2019-03-04T09:12:51.338Z,31.30
2019-03-04T09:15:21.116Z,32.17
2019-03-04T09:17:52.720Z,33.23
2019-03-04T09:20:23.303Z,33.97
2019-03-04T09:22:54.544Z,32.67
2019-03-04T09:25:35.712Z,37.80
2019-03-04T09:28:08.429Z,33.43
2019-03-04T09:30:37.800Z,30.40
2019-03-04T09:33:08.056Z,31.53
2019-03-04T09:35:37.697Z,32.63
2019-03-04T09:38:07.829Z,35.57
2019-03-04T09:40:37.896Z,36.73
2019-03-04T09:43:07.911Z,34.10
2019-03-04T09:45:39.122Z,33.90
2019-03-04T09:48:08.765Z,36.48
2019-03-04T09:50:38.233Z,31.82
2019-03-04T09:53:07.630Z,32.48
2019-03-04T09:55:37.076Z,35.40
2019-03-04T09:58:06.479Z,33.05
2019-03-04T10:01:18.318Z,29.18
2019-03-04T10:04:13.890Z,29.48
2019-03-04T10:07:27.980Z,26.52
2019-03-04T10:10:26.755Z,29.50
2019-03-04T10:13:33.247Z,29.90
2019-03-04T10:16:29.326Z,30.82
2019-03-04T10:19:51.143Z,27.20
2019-03-04T10:22:42.414Z,25.85
2019-03-04T10:25:57.554Z,23.35
2019-03-04T10:29:06.794Z,22.65
2019-03-04T10:31:56.770Z,23.52
2019-03-04T10:35:22.286Z,23.40
2019-03-04T10:38:29.311Z,19.17
2019-03-04T10:41:10.465Z,20.48
2019-03-04T10:44:33.118Z,21.10
2019-03-04T10:47:01.950Z,22.07
2019-03-04T10:49:32.356Z,18.05
2019-03-04T10:52:02.181Z,16.75
2019-03-04T10:54:31.696Z,17.95
2019-03-04T10:57:01.618Z,17.85
2019-03-04T10:59:31.027Z,13.75
2019-03-04T11:02:00.480Z,6.80
2019-03-04T11:04:30.007Z,6.15
2019-03-04T11:06:59.485Z,4.37
2019-03-04T11:09:28.857Z,4.60
2019-03-04T11:11:58.242Z,4.03
2019-03-04T11:14:27.608Z,4.90
2019-03-04T11:16:56.942Z,5.40
2019-03-04T11:19:26.312Z,5.72
2019-03-04T11:21:55.798Z,4.92
2019-03-04T11:24:25.124Z,3.47
2019-03-04T11:26:54.616Z,3.83
2019-03-04T11:29:24.069Z,5.35
2019-03-04T11:31:53.447Z,4.40
2019-03-04T11:34:22.817Z,3.47
2019-03-04T11:36:52.377Z,5.00
2019-03-04T11:39:44.800Z,5.53
2019-03-04T11:42:14.190Z,4.37
2019-03-04T11:44:43.589Z,3.77
2019-03-04T11:47:13.831Z,4.20
2019-03-04T11:49:43.218Z,3.37
2019-03-04T11:52:12.637Z,4.10
2019-03-04T11:54:41.985Z,3.12
2019-03-04T11:57:11.349Z,3.08
2019-03-04T11:59:40.831Z,4.90
2019-03-04T12:02:17.176Z,3.10
2019-03-04T12:04:46.530Z,4.12
2019-03-04T12:07:15.862Z,3.30
2019-03-04T12:09:45.213Z,4.83
2019-03-04T12:12:14.592Z,3.75
2019-03-04T12:14:44.174Z,7.20
2019-03-04T12:17:13.961Z,5.47
2019-03-04T12:19:43.314Z,4.33
2019-03-04T12:22:12.688Z,4.15
2019-03-04T12:24:42.017Z,6.35
2019-03-04T12:27:11.381Z,3.67
2019-03-04T12:29:40.739Z,4.03
2019-03-04T12:32:14.056Z,5.65
2019-03-04T12:34:43.445Z,4.85
2019-03-04T12:37:12.895Z,5.97
2019-03-04T12:39:42.316Z,3.77
2019-03-04T12:42:11.680Z,4.35
2019-03-04T12:44:41.083Z,6.58
2019-03-04T12:47:10.416Z,4.50
2019-03-04T12:49:39.908Z,4.60
2019-03-04T12:52:09.280Z,7.28
2019-03-04T12:54:38.638Z,4.95
2019-03-04T12:57:08.035Z,8.08
2019-03-04T12:59:37.398Z,5.67
2019-03-04T13:02:07.568Z,5.12
2019-03-04T13:04:36.888Z,5.75
2019-03-04T13:07:06.268Z,7.03
2019-03-04T13:09:35.696Z,8.43
2019-03-04T13:12:05.062Z,4.87
2019-03-04T13:14:34.971Z,4.47
2019-03-04T13:17:07.422Z,5.17
2019-03-04T13:19:36.825Z,5.97
2019-03-04T13:22:08.778Z,5.37
2019-03-04T13:24:37.408Z,6.97
2019-03-04T13:27:06.936Z,5.73
2019-03-04T13:29:36.329Z,7.53
2019-03-04T13:32:05.695Z,8.57
2019-03-04T13:34:35.092Z,6.57
2019-03-04T13:37:07.209Z,5.60
2019-03-04T13:39:36.581Z,5.87
2019-03-04T13:42:05.972Z,4.93
2019-03-04T13:44:35.807Z,7.90
2019-03-04T13:47:05.255Z,8.50
2019-03-04T13:49:34.756Z,5.07
2019-03-04T13:52:04.201Z,4.57
2019-03-04T13:54:33.596Z,6.27
2019-03-04T13:57:02.988Z,6.77
2019-03-04T13:59:32.348Z,5.70
2019-03-04T14:02:01.718Z,3.87
2019-03-04T14:04:31.057Z,4.60
2019-03-04T14:07:00.429Z,4.73
2019-03-04T14:09:29.755Z,4.13
2019-03-04T14:11:59.256Z,4.43
2019-03-04T14:14:28.653Z,5.73
2019-03-04T14:16:58.154Z,7.07
2019-03-04T14:19:27.476Z,6.03
2019-03-04T14:21:57.007Z,5.17
2019-03-04T14:24:26.351Z,4.73
2019-03-04T14:26:55.782Z,4.80
2019-03-04T14:29:25.122Z,7.00
2019-03-04T14:31:54.507Z,5.27
2019-03-04T14:34:24.015Z,3.70
2019-03-04T14:36:53.552Z,4.93
2019-03-04T14:39:22.925Z,3.97
2019-03-04T14:41:52.653Z,5.87
2019-03-04T14:44:22.089Z,6.33
2019-03-04T14:46:51.446Z,5.47
2019-03-04T14:49:20.801Z,4.90
2019-03-04T14:51:50.199Z,5.83
2019-03-04T14:54:19.563Z,6.83
2019-03-04T14:56:48.909Z,4.63
2019-03-04T14:59:18.257Z,4.83
2019-03-04T15:01:47.596Z,3.83
2019-03-04T15:04:17.426Z,4.33
2019-03-04T15:06:46.842Z,5.90
2019-03-04T15:09:16.553Z,7.90
2019-03-04T15:11:45.989Z,5.20
2019-03-04T15:14:15.390Z,7.27
2019-03-04T15:16:46.420Z,6.37
2019-03-04T15:19:23.802Z,6.50
2019-03-04T15:22:34.414Z,6.87
2019-03-04T15:25:27.671Z,5.30
2019-03-04T15:28:15.055Z,4.00
2019-03-04T15:30:45.170Z,5.33
2019-03-04T15:33:18.518Z,4.83
2019-03-04T15:35:46.127Z,7.43
2019-03-04T15:38:15.561Z,7.17
2019-03-04T15:40:44.922Z,6.00
2019-03-04T15:43:14.252Z,5.23
2019-03-04T15:45:46.250Z,4.23
2019-03-04T15:48:15.812Z,4.70
2019-03-04T15:50:48.042Z,5.33
2019-03-04T15:53:17.809Z,6.40
2019-03-04T15:55:47.338Z,7.87
2019-03-04T15:58:16.811Z,9.57
2019-03-04T16:00:46.180Z,8.27
2019-03-04T16:03:15.579Z,4.80
2019-03-04T16:05:45.508Z,5.50
2019-03-04T16:08:14.845Z,7.00
2019-03-04T16:10:44.310Z,7.07
2019-03-04T16:13:13.760Z,11.57
2019-03-04T16:15:44.383Z,13.40
2019-03-04T16:18:14.281Z,12.10
2019-03-04T16:20:43.823Z,7.03
2019-03-04T16:23:13.280Z,10.27
2019-03-04T16:25:42.683Z,10.17
2019-03-04T16:28:18.280Z,7.37
2019-03-04T16:30:49.770Z,8.33
2019-03-04T16:33:19.324Z,7.97
2019-03-04T16:35:48.848Z,6.70
2019-03-04T16:38:18.330Z,6.53
2019-03-04T16:40:47.724Z,7.50
2019-03-04T16:43:21.133Z,10.23
2019-03-04T16:45:50.486Z,12.00
2019-03-04T16:48:19.891Z,13.60
2019-03-04T16:50:49.558Z,13.13
2019-03-04T16:53:19.472Z,13.00
2019-03-04T16:55:48.866Z,13.93
2019-03-04T16:58:18.767Z,17.07
2019-03-04T17:00:48.899Z,21.20
2019-03-04T17:03:18.356Z,26.57
2019-03-04T17:05:47.883Z,7.10
2019-03-04T17:08:17.272Z,14.20
2019-03-04T17:10:46.652Z,23.70
2019-03-04T17:13:16.108Z,17.17
2019-03-04T17:15:45.553Z,15.70
2019-03-04T17:18:14.999Z,18.33
2019-03-04T17:20:44.416Z,21.77
2019-03-04T17:23:13.852Z,23.50
2019-03-04T17:25:46.503Z,18.43
2019-03-04T17:28:16.004Z,20.20
2019-03-04T17:30:45.744Z,26.97
2019-03-04T17:33:15.421Z,26.00
2019-03-04T17:35:44.859Z,23.83
2019-03-04T17:38:14.232Z,29.70
2019-03-04T17:40:43.650Z,29.00
2019-03-04T17:43:12.961Z,25.37
2019-03-04T17:45:42.501Z,33.20
2019-03-04T17:48:11.986Z,31.87
2019-03-04T17:50:41.395Z,34.23
2019-03-04T17:53:10.879Z,33.33
2019-03-04T17:55:40.810Z,30.30
2019-03-04T17:58:10.206Z,30.10
2019-03-04T18:00:41.252Z,30.93
2019-03-04T18:03:11.809Z,30.00
2019-03-04T18:05:41.188Z,31.30
2019-03-04T18:08:10.870Z,31.87
2019-03-04T18:10:40.284Z,29.73
2019-03-04T18:13:10.939Z,34.57
2019-03-04T18:15:40.338Z,34.37
2019-03-04T18:18:09.708Z,37.30
2019-03-04T18:20:39.082Z,28.00
2019-03-04T18:23:08.892Z,27.70
2019-03-04T18:25:44.851Z,32.50
2019-03-04T18:28:27.941Z,23.57
2019-03-04T18:31:28.959Z,27.97
2019-03-04T18:34:40.725Z,33.10
2019-03-04T18:37:48.394Z,27.20
2019-03-04T18:40:54.564Z,32.17
2019-03-04T18:43:47.955Z,33.77
2019-03-04T18:47:08.235Z,33.60
2019-03-04T18:49:37.615Z,29.17
2019-03-04T18:52:07.002Z,28.30
2019-03-04T18:54:36.338Z,62.43
2019-03-04T18:57:05.968Z,25.43
2019-03-04T18:59:35.456Z,36.00
2019-03-04T19:02:04.964Z,56.90
2019-03-04T19:04:34.353Z,62.53
2019-03-04T19:07:03.765Z,104.80
2019-03-04T19:09:33.158Z,121.77
2019-03-04T19:12:02.514Z,59.13
2019-03-04T19:14:31.849Z,60.63
2019-03-04T19:17:01.296Z,57.70
2019-03-04T19:19:30.643Z,49.37
2019-03-04T19:22:00.023Z,43.80
2019-03-04T19:24:29.521Z,51.40
2019-03-04T19:26:58.872Z,38.87
2019-03-04T19:29:28.230Z,42.13
2019-03-04T19:31:57.577Z,34.97
2019-03-04T19:34:28.294Z,38.53
2019-03-04T19:36:57.874Z,57.60
2019-03-04T19:39:28.322Z,47.50
2019-03-04T19:41:57.745Z,36.33
2019-03-04T19:44:27.157Z,29.67
2019-03-04T19:46:56.719Z,32.07
2019-03-04T19:49:25.993Z,37.53
2019-03-04T19:51:55.535Z,27.30
2019-03-04T19:54:24.890Z,30.10
2019-03-04T19:56:54.228Z,34.07
2019-03-04T19:59:23.694Z,25.20
2019-03-04T20:01:52.909Z,26.00
2019-03-04T20:04:22.310Z,36.93
2019-03-04T20:06:51.728Z,16.90
2019-03-04T20:09:21.146Z,21.67
2019-03-04T20:11:50.582Z,19.57
2019-03-04T20:14:19.914Z,24.67
2019-03-04T20:16:49.309Z,19.33
2019-03-04T20:19:18.709Z,29.57
2019-03-04T20:21:48.054Z,32.10
2019-03-04T20:24:17.431Z,33.93
2019-03-04T20:26:46.792Z,30.57
2019-03-04T20:29:16.324Z,32.20
2019-03-04T20:31:45.715Z,38.63
2019-03-04T20:34:15.521Z,43.27
2019-03-04T20:36:44.994Z,51.27
2019-03-04T20:39:16.301Z,60.33
2019-03-04T20:41:45.649Z,51.70
2019-03-04T20:44:16.448Z,57.83
2019-03-04T20:46:45.844Z,47.33
2019-03-04T20:49:15.231Z,52.23
2019-03-04T20:51:44.539Z,84.67
2019-03-04T20:54:13.899Z,55.20
2019-03-04T20:56:43.263Z,51.03
2019-03-04T20:59:12.625Z,45.53
2019-03-04T21:01:42.090Z,41.03
2019-03-04T21:04:11.817Z,56.73
2019-03-04T21:06:41.204Z,63.83
2019-03-04T21:09:11.850Z,66.23
2019-03-04T21:11:41.218Z,67.20
2019-03-04T21:14:10.605Z,64.43
2019-03-04T21:16:39.971Z,61.97
2019-03-04T21:19:09.322Z,64.40
2019-03-04T21:21:38.711Z,64.27
2019-03-04T21:24:08.091Z,49.27
2019-03-04T21:26:40.928Z,49.00
2019-03-04T21:30:12.759Z,46.13
2019-03-04T21:32:47.111Z,52.60
2019-03-04T21:36:02.677Z,52.13
2019-03-04T21:38:33.985Z,44.13
2019-03-04T21:41:33.529Z,40.27
2019-03-04T21:44:52.965Z,45.67
2019-03-04T21:47:29.646Z,47.87
2019-03-04T21:49:59.165Z,36.90
2019-03-04T21:52:54.377Z,45.50
2019-03-04T21:55:50.759Z,34.43
2019-03-04T21:58:20.190Z,30.60
2019-03-04T22:01:00.487Z,32.10
2019-03-04T22:03:35.962Z,35.27
2019-03-04T22:06:06.561Z,26.17
2019-03-04T22:08:35.981Z,39.67
2019-03-04T22:11:05.951Z,29.63
2019-03-04T22:13:35.642Z,45.33
2019-03-04T22:16:05.164Z,32.80
2019-03-04T22:18:34.572Z,32.80
2019-03-04T22:21:04.137Z,37.47
2019-03-04T22:23:33.488Z,49.27
2019-03-04T22:26:02.868Z,40.87
2019-03-04T22:28:32.288Z,30.53
2019-03-04T22:31:01.640Z,31.90
2019-03-04T22:33:30.988Z,37.83
2019-03-04T22:36:00.398Z,40.80
2019-03-04T22:38:29.820Z,40.53
2019-03-04T22:40:59.221Z,39.57
2019-03-04T22:43:28.682Z,40.43
2019-03-04T22:45:58.105Z,36.03
2019-03-04T22:48:27.529Z,37.93
2019-03-04T22:50:56.970Z,46.17
2019-03-04T22:53:26.350Z,42.77
2019-03-04T22:55:56.103Z,38.67
2019-03-04T22:58:28.857Z,42.70
2019-03-04T23:01:37.059Z,40.20
2019-03-04T23:04:36.025Z,43.70
2019-03-04T23:07:37.454Z,30.43
2019-03-04T23:10:32.719Z,31.77
2019-03-04T23:13:43.615Z,49.47
2019-03-04T23:16:15.575Z,39.60
2019-03-04T23:18:44.950Z,38.50
2019-03-04T23:21:14.315Z,30.30
2019-03-04T23:23:43.683Z,40.03
2019-03-04T23:26:13.075Z,45.17
2019-03-04T23:28:42.460Z,40.97
2019-03-04T23:31:11.867Z,46.20
2019-03-04T23:33:41.259Z,42.97
2019-03-04T23:36:10.752Z,60.00
2019-03-04T23:38:40.107Z,58.03
2019-03-04T23:41:09.502Z,52.63
2019-03-04T23:43:38.861Z,47.67
2019-03-04T23:46:08.233Z,54.80
2019-03-04T23:48:37.639Z,44.87
2019-03-04T23:51:06.991Z,66.57
2019-03-04T23:53:36.384Z,57.60
2019-03-04T23:56:05.829Z,60.77
2019-03-04T23:58:35.212Z,82.07
